Time;durP1;ratioP1;P1;durP2;ratioP2;P2;SDS_P1;SDS_P2;PMS_P1;PMS_P2;Temp;Humidity;BMP_temperature;BMP_pressure;BME280_temperature;BME280_humidity;BME280_pressure;Samples;Min_cycle;Max_cycle;Signal;HPM_P1;HPM_P2
2023/04/17 00:00:13;;;;;;;7.25;6.10;;;5.30;99.90;;;;;;5029782;28;20060;-57
2023/04/17 00:02:39;;;;;;;6.88;6.28;;;5.20;99.90;;;;;;5030089;28;20020;-58
2023/04/17 00:05:09;;;;;;;7.03;6.32;;;5.20;99.90;;;;;;5033024;28;20096;-58
2023/04/17 00:07:37;;;;;;;9.55;6.40;;;5.20;99.90;;;;;;5033849;28;20106;-58
2023/04/17 00:10:06;;;;;;;7.03;6.07;;;5.20;99.90;;;;;;5033774;28;20477;-58
2023/04/17 00:12:31;;;;;;;11.77;7.35;;;5.20;99.90;;;;;;5033855;28;20112;-58
2023/04/17 00:14:57;;;;;;;7.55;6.57;;;5.20;99.90;;;;;;5033523;28;20445;-59
2023/04/17 00:17:23;;;;;;;8.32;7.05;;;5.30;99.90;;;;;;5033412;28;20440;-58
2023/04/17 00:19:49;;;;;;;9.02;7.35;;;5.30;99.90;;;;;;5033670;28;20029;-56
2023/04/17 00:22:14;;;;;;;7.70;6.90;;;5.40;99.90;;;;;;5033592;28;20026;-56
2023/04/17 00:24:40;;;;;;;7.00;6.40;;;5.40;99.90;;;;;;5033665;28;20022;-58
2023/04/17 00:27:06;;;;;;;6.88;6.18;;;5.50;99.90;;;;;;5033373;28;20025;-56
2023/04/17 00:29:32;;;;;;;6.93;6.22;;;5.50;99.90;;;;;;5033440;28;20029;-59
2023/04/17 00:31:59;;;;;;;7.60;6.85;;;5.50;99.90;;;;;;5033549;28;20033;-58
2023/04/17 00:34:24;;;;;;;9.40;7.32;;;5.50;99.90;;;;;;5033178;28;20029;-56
2023/04/17 00:36:50;;;;;;;8.55;6.95;;;5.50;99.90;;;;;;5033309;28;20013;-57
2023/04/17 00:39:16;;;;;;;11.27;7.43;;;5.50;99.90;;;;;;5033346;28;20362;-58
2023/04/17 00:41:41;;;;;;;9.13;7.07;;;5.50;99.90;;;;;;5033310;28;20448;-58
2023/04/17 00:44:07;;;;;;;7.70;6.90;;;5.60;99.90;;;;;;5032969;28;20029;-59
2023/04/17 00:46:33;;;;;;;9.52;7.72;;;5.60;99.90;;;;;;5033539;28;20117;-58
2023/04/17 00:49:00;;;;;;;11.25;8.48;;;5.60;99.90;;;;;;5033097;28;20049;-58
2023/04/17 00:51:26;;;;;;;9.70;7.40;;;5.70;99.90;;;;;;5033093;28;20047;-58
2023/04/17 00:53:53;;;;;;;11.63;7.30;;;5.70;99.90;;;;;;5033134;28;20413;-56
2023/04/17 00:56:18;;;;;;;8.70;7.80;;;5.70;99.90;;;;;;5032879;28;20374;-59
2023/04/17 00:58:45;;;;;;;8.77;7.10;;;5.80;99.90;;;;;;5032808;28;20028;-58
2023/04/17 01:01:11;;;;;;;8.20;7.40;;;5.80;99.90;;;;;;5032565;28;20034;-58
2023/04/17 01:03:36;;;;;;;9.20;8.30;;;5.80;99.90;;;;;;5032764;28;20040;-57
2023/04/17 01:06:02;;;;;;;7.20;6.50;;;5.90;99.90;;;;;;5032767;28;20028;-57
2023/04/17 01:08:36;;;;;;;7.40;6.70;;;6.00;99.90;;;;;;5032777;28;20175;-56
2023/04/17 01:11:01;;;;;;;8.07;7.18;;;6.00;99.90;;;;;;5032748;28;20083;-59
2023/04/17 01:13:27;;;;;;;8.18;7.35;;;6.00;99.90;;;;;;5032415;28;20049;-57
2023/04/17 01:15:53;;;;;;;7.53;6.82;;;6.00;99.90;;;;;;5032329;28;20400;-59
2023/04/17 01:18:18;;;;;;;7.90;7.18;;;6.00;99.90;;;;;;5032427;28;20025;-57
2023/04/17 01:20:44;;;;;;;11.88;7.80;;;6.00;99.90;;;;;;5032513;28;20026;-59
2023/04/17 01:23:10;;;;;;;8.32;6.65;;;6.00;99.90;;;;;;5032542;28;20525;-57
2023/04/17 01:25:36;;;;;;;7.90;7.18;;;6.10;99.90;;;;;;5032583;28;20029;-58
2023/04/17 01:28:01;;;;;;;8.52;6.00;;;6.10;99.90;;;;;;5032249;28;20381;-57
2023/04/17 01:30:27;;;;;;;7.15;6.45;;;6.10;99.90;;;;;;5032274;28;20426;-58
2023/04/17 01:32:54;;;;;;;7.28;6.57;;;6.10;99.90;;;;;;5031139;28;20147;-58
2023/04/17 01:35:20;;;;;;;7.28;6.57;;;6.10;99.90;;;;;;5032245;28;20071;-53
2023/04/17 01:37:45;;;;;;;7.55;6.85;;;6.10;99.90;;;;;;5032245;28;20021;-57
2023/04/17 01:40:11;;;;;;;6.65;6.05;;;6.10;99.90;;;;;;5032205;28;20100;-58
2023/04/17 01:42:37;;;;;;;6.95;6.35;;;6.10;99.90;;;;;;5032448;28;20029;-58
2023/04/17 01:45:04;;;;;;;7.82;6.97;;;6.10;99.90;;;;;;5032322;28;20022;-58
2023/04/17 01:47:29;;;;;;;8.95;6.55;;;6.10;99.90;;;;;;5031985;28;20370;-57
2023/04/17 01:49:55;;;;;;;7.72;7.03;;;6.10;99.90;;;;;;5032018;28;20029;-59
2023/04/17 01:52:21;;;;;;;7.75;7.00;;;6.10;99.90;;;;;;5031838;28;20037;-59
2023/04/17 01:54:46;;;;;;;7.72;7.00;;;6.10;99.90;;;;;;5031918;28;20026;-59
2023/04/17 01:57:12;;;;;;;10.93;6.93;;;6.10;99.90;;;;;;5031495;28;20473;-56
2023/04/17 01:59:38;;;;;;;7.82;7.07;;;6.10;99.90;;;;;;5031651;28;20025;-58
2023/04/17 02:02:03;;;;;;;8.63;7.10;;;6.10;99.90;;;;;;5031597;28;20032;-59
2023/04/17 02:04:29;;;;;;;7.22;6.53;;;6.10;99.90;;;;;;5031717;28;20021;-57
2023/04/17 02:06:55;;;;;;;7.35;6.65;;;6.10;99.90;;;;;;5031566;28;20029;-58
2023/04/17 02:09:21;;;;;;;7.45;6.75;;;6.00;99.90;;;;;;5031466;28;20021;-58
2023/04/17 02:11:46;;;;;;;8.25;7.45;;;6.00;99.90;;;;;;5030084;28;20033;-58
2023/04/17 02:14:12;;;;;;;7.20;6.50;;;6.00;99.90;;;;;;5031118;28;20053;-58
2023/04/17 02:16:39;;;;;;;9.50;6.82;;;6.00;99.90;;;;;;5031483;28;20065;-58
2023/04/17 02:19:05;;;;;;;15.95;9.30;;;6.00;99.90;;;;;;5031063;28;20036;-56
2023/04/17 02:21:32;;;;;;;18.25;9.98;;;6.00;99.90;;;;;;5031364;28;20045;-59
2023/04/17 02:23:57;;;;;;;11.60;7.63;;;6.00;99.90;;;;;;5031489;28;20029;-58
2023/04/17 02:26:23;;;;;;;7.57;6.90;;;6.00;99.90;;;;;;5030829;28;20032;-58
2023/04/17 02:28:49;;;;;;;7.47;6.78;;;6.10;99.90;;;;;;5031505;28;20049;-58
2023/04/17 02:31:15;;;;;;;6.85;6.25;;;6.20;99.90;;;;;;5031360;28;20026;-59
2023/04/17 02:33:40;;;;;;;6.85;6.15;;;6.20;99.90;;;;;;5031441;28;20113;-57
2023/04/17 02:36:06;;;;;;;7.65;6.65;;;6.20;99.90;;;;;;5031556;28;20548;-57
2023/04/17 02:38:32;;;;;;;7.07;6.38;;;6.30;99.90;;;;;;5030955;28;20091;-58
2023/04/17 02:40:58;;;;;;;6.10;5.60;;;6.20;99.90;;;;;;5030635;28;20022;-58
2023/04/17 02:43:24;;;;;;;6.95;6.35;;;6.20;99.90;;;;;;5030906;28;20137;-55
2023/04/17 02:45:50;;;;;;;8.27;6.45;;;6.20;99.90;;;;;;5029706;28;20025;-57
2023/04/17 02:48:16;;;;;;;7.10;6.40;;;6.10;99.90;;;;;;5030727;28;20022;-58
2023/04/17 02:50:42;;;;;;;7.50;6.80;;;6.10;99.90;;;;;;5031207;28;20405;-59
2023/04/17 02:53:08;;;;;;;7.35;6.65;;;6.10;99.90;;;;;;5030601;28;20026;-57
2023/04/17 02:55:34;;;;;;;7.90;6.82;;;6.10;99.90;;;;;;5030737;28;20037;-55
2023/04/17 02:58:00;;;;;;;8.10;7.30;;;6.00;99.90;;;;;;5030776;28;20551;-58
2023/04/17 03:00:27;;;;;;;9.00;8.10;;;6.00;99.90;;;;;;5030634;28;20038;-58
2023/04/17 03:02:53;;;;;;;8.93;7.82;;;5.90;99.90;;;;;;5030786;28;20101;-58
2023/04/17 03:05:22;;;;;;;8.70;7.90;;;5.90;99.90;;;;;;5030486;28;20647;-55
2023/04/17 03:07:49;;;;;;;8.25;7.47;;;5.90;99.90;;;;;;5030519;28;20022;-58
2023/04/17 03:10:15;;;;;;;8.35;7.55;;;5.90;99.90;;;;;;5030517;28;20025;-58
2023/04/17 03:12:40;;;;;;;8.73;7.82;;;5.90;99.90;;;;;;5030516;28;20134;-57
2023/04/17 03:15:07;;;;;;;10.60;8.48;;;5.90;99.90;;;;;;5028843;28;20053;-57
2023/04/17 03:17:32;;;;;;;8.82;7.93;;;5.90;99.90;;;;;;5030435;28;20428;-54
2023/04/17 03:19:58;;;;;;;9.18;8.25;;;5.80;99.90;;;;;;5030374;28;20026;-58
2023/04/17 03:22:24;;;;;;;9.07;8.23;;;5.80;99.90;;;;;;5030140;28;20036;-54
2023/04/17 03:24:49;;;;;;;9.70;8.20;;;5.80;99.90;;;;;;5029223;28;20026;-56
2023/04/17 03:27:15;;;;;;;9.63;8.63;;;5.80;99.90;;;;;;5030192;28;20033;-58
2023/04/17 03:29:40;;;;;;;9.02;7.68;;;5.90;99.90;;;;;;5030385;28;20444;-58
2023/04/17 03:32:06;;;;;;;8.93;8.02;;;6.00;99.90;;;;;;5028785;28;20472;-57
2023/04/17 03:34:32;;;;;;;8.52;7.72;;;6.00;99.90;;;;;;5030400;28;20091;-55
2023/04/17 03:36:58;;;;;;;8.07;7.28;;;6.10;99.90;;;;;;5030292;28;20029;-58
2023/04/17 03:39:23;;;;;;;8.07;7.25;;;6.10;99.90;;;;;;5033641;28;20033;-57
2023/04/17 03:41:49;;;;;;;8.18;7.28;;;6.10;99.90;;;;;;5034495;28;20026;-56
2023/04/17 03:44:16;;;;;;;8.25;7.47;;;6.20;99.90;;;;;;5034547;28;20097;-57
2023/04/17 03:46:41;;;;;;;8.95;8.05;;;6.10;99.90;;;;;;5034212;28;20113;-55
2023/04/17 03:49:07;;;;;;;8.05;7.25;;;6.20;99.90;;;;;;5034022;28;20495;-58
2023/04/17 03:51:33;;;;;;;8.93;7.75;;;6.20;99.90;;;;;;5034111;28;20022;-59
2023/04/17 03:53:58;;;;;;;8.57;7.78;;;6.30;99.90;;;;;;5034148;28;20021;-56
2023/04/17 03:56:24;;;;;;;7.80;6.70;;;6.20;99.90;;;;;;5032551;28;20362;-57
2023/04/17 03:58:50;;;;;;;8.00;7.20;;;6.20;99.90;;;;;;5034208;28;20057;-58
2023/04/17 04:01:16;;;;;;;8.88;8.02;;;6.10;99.90;;;;;;5033739;28;20057;-58
2023/04/17 04:03:42;;;;;;;9.60;8.23;;;6.20;99.90;;;;;;5034024;28;20034;-58
2023/04/17 04:06:07;;;;;;;8.88;7.97;;;6.20;99.90;;;;;;5033543;28;20033;-57
2023/04/17 04:08:33;;;;;;;10.65;8.98;;;6.10;99.90;;;;;;5033863;28;20051;-58
2023/04/17 04:11:02;;;;;;;11.20;8.90;;;6.00;99.90;;;;;;5032816;28;20061;-55
2023/04/17 04:13:27;;;;;;;12.35;9.35;;;6.00;99.90;;;;;;5033600;28;20072;-57
2023/04/17 04:15:53;;;;;;;9.02;8.10;;;6.00;99.90;;;;;;5033694;28;20476;-55
2023/04/17 04:18:19;;;;;;;10.60;9.50;;;6.00;99.90;;;;;;5033534;28;20033;-53
2023/04/17 04:20:44;;;;;;;9.10;8.20;;;6.10;99.90;;;;;;5033522;28;20021;-59
2023/04/17 04:23:11;;;;;;;12.05;10.30;;;6.10;99.90;;;;;;5033390;28;20497;-58
2023/04/17 04:25:40;;;;;;;16.65;13.02;;;6.20;99.90;;;;;;5033559;28;20067;-53
2023/04/17 04:28:06;;;;;;;15.40;11.77;;;6.20;99.90;;;;;;5033427;28;20104;-58
2023/04/17 04:30:34;;;;;;;13.57;11.40;;;6.20;99.90;;;;;;5033585;28;20145;-55
2023/04/17 04:33:04;;;;;;;9.98;8.98;;;6.20;99.90;;;;;;5033492;28;20096;-58
2023/04/17 04:35:30;;;;;;;9.35;8.38;;;6.20;99.90;;;;;;5033276;28;20032;-58
2023/04/17 04:38:00;;;;;;;8.68;7.78;;;6.30;99.90;;;;;;5033347;28;20022;-58
2023/04/17 04:40:27;;;;;;;10.10;8.52;;;6.20;99.90;;;;;;5032966;28;20060;-58
2023/04/17 04:42:52;;;;;;;9.25;8.35;;;6.30;99.90;;;;;;5033200;28;20032;-59
2023/04/17 04:45:18;;;;;;;13.52;8.73;;;6.30;99.90;;;;;;5033242;28;20026;-58
2023/04/17 04:47:44;;;;;;;9.45;8.45;;;6.30;99.90;;;;;;5032109;28;20033;-58
2023/04/17 04:50:10;;;;;;;9.07;8.15;;;6.30;99.90;;;;;;5031999;28;20180;-58
2023/04/17 04:52:35;;;;;;;11.45;8.77;;;6.20;99.90;;;;;;5033337;28;20030;-57
2023/04/17 04:55:01;;;;;;;10.90;8.27;;;6.20;99.90;;;;;;5033011;28;20437;-58
2023/04/17 04:57:27;;;;;;;10.60;9.50;;;6.30;99.90;;;;;;5032867;28;20021;-58
2023/04/17 04:59:52;;;;;;;12.20;9.85;;;6.30;99.90;;;;;;5032912;28;20025;-58
2023/04/17 05:02:18;;;;;;;16.90;14.27;;;6.30;99.90;;;;;;5033245;28;20018;-57
2023/04/17 05:04:43;;;;;;;10.35;9.25;;;6.40;99.90;;;;;;5032764;28;20017;-58
2023/04/17 05:07:10;;;;;;;9.65;8.65;;;6.40;99.90;;;;;;5032718;28;20116;-58
2023/04/17 05:09:35;;;;;;;10.48;9.48;;;6.40;99.90;;;;;;5032908;28;20049;-59
2023/04/17 05:12:01;;;;;;;10.48;8.90;;;6.50;99.90;;;;;;5032601;28;20088;-58
2023/04/17 05:14:27;;;;;;;16.42;14.85;;;6.60;99.90;;;;;;5032392;28;20099;-58
2023/04/17 05:16:54;;;;;;;9.45;8.55;;;6.60;99.90;;;;;;5032383;28;20025;-59
2023/04/17 05:19:20;;;;;;;8.15;7.45;;;6.60;99.90;;;;;;5032158;28;20026;-57
2023/04/17 05:21:45;;;;;;;8.20;7.40;;;6.70;99.90;;;;;;5032421;28;20076;-58
2023/04/17 05:24:11;;;;;;;8.43;7.63;;;6.70;99.90;;;;;;5032212;28;20029;-57
2023/04/17 05:26:37;;;;;;;8.80;6.90;;;6.80;99.90;;;;;;5032393;28;20479;-58
2023/04/17 05:29:02;;;;;;;9.07;7.15;;;6.80;99.90;;;;;;5032417;28;20111;-57
2023/04/17 05:31:28;;;;;;;7.95;7.15;;;6.90;99.90;;;;;;5032295;28;20493;-57
2023/04/17 05:33:54;;;;;;;8.00;7.20;;;7.00;99.90;;;;;;5032171;28;20060;-58
2023/04/17 05:36:21;;;;;;;8.30;7.40;;;7.00;99.90;;;;;;5032165;28;20435;-57
2023/04/17 05:38:47;;;;;;;7.47;6.78;;;7.00;99.90;;;;;;5032228;28;20033;-57
2023/04/17 05:41:12;;;;;;;7.93;7.13;;;7.00;99.90;;;;;;5031874;28;20043;-55
2023/04/17 05:43:38;;;;;;;8.25;7.43;;;7.00;99.90;;;;;;5032143;28;20105;-58
2023/04/17 05:46:04;;;;;;;7.45;6.65;;;7.10;99.90;;;;;;5030800;28;20384;-58
2023/04/17 05:48:30;;;;;;;8.00;7.18;;;7.10;99.90;;;;;;5031787;28;20079;-58
2023/04/17 05:50:56;;;;;;;11.55;7.47;;;7.20;99.90;;;;;;5031986;28;20036;-57
2023/04/17 05:53:21;;;;;;;9.75;7.82;;;7.20;99.90;;;;;;5031703;28;20419;-58
2023/04/17 05:55:47;;;;;;;8.35;7.15;;;7.20;99.90;;;;;;5031971;28;20022;-54
2023/04/17 06:00:32;;;;;;;7.75;7.00;;;7.20;99.90;;;;;;5087086;28;20383;-56
2023/04/17 06:03:00;;;;;;;6.82;6.22;;;7.20;99.90;;;;;;5087295;28;20024;-59
2023/04/17 06:05:26;;;;;;;7.22;6.55;;;7.10;99.90;;;;;;5086349;28;20046;-58
2023/04/17 06:07:52;;;;;;;8.25;7.40;;;7.20;99.90;;;;;;5087917;28;20016;-59
2023/04/17 06:10:18;;;;;;;7.07;6.38;;;7.20;99.90;;;;;;5086385;28;20118;-59
2023/04/17 06:12:44;;;;;;;7.75;7.05;;;7.10;99.90;;;;;;5087846;28;20016;-58
2023/04/17 06:15:10;;;;;;;6.95;6.25;;;7.10;99.90;;;;;;5087427;28;20035;-58
2023/04/17 06:17:39;;;;;;;7.25;6.63;;;7.10;99.90;;;;;;5087549;28;20024;-55
2023/04/17 06:20:09;;;;;;;7.90;6.78;;;7.00;99.90;;;;;;5086077;28;20020;-59
2023/04/17 06:22:35;;;;;;;7.40;6.70;;;7.10;99.90;;;;;;5087452;28;20024;-57
2023/04/17 06:25:01;;;;;;;7.82;7.03;;;7.00;99.90;;;;;;5087534;28;20107;-59
2023/04/17 06:27:27;;;;;;;8.13;7.32;;;7.00;99.90;;;;;;5087310;28;20391;-58
2023/04/17 06:29:52;;;;;;;8.02;7.22;;;7.10;99.90;;;;;;5087511;28;20028;-59
2023/04/17 06:32:18;;;;;;;11.25;6.63;;;7.00;99.90;;;;;;5087189;28;20021;-58
2023/04/17 06:34:44;;;;;;;8.90;8.00;;;7.00;99.90;;;;;;5087591;28;20115;-59
2023/04/17 06:37:09;;;;;;;7.78;7.05;;;7.00;99.90;;;;;;5087179;28;20365;-59
2023/04/17 06:39:35;;;;;;;8.75;7.82;;;7.10;99.90;;;;;;5087061;28;20032;-59
2023/04/17 06:42:01;;;;;;;9.13;7.50;;;7.10;99.90;;;;;;5087310;28;20494;-58
2023/04/17 06:44:27;;;;;;;7.75;7.03;;;7.00;99.90;;;;;;5087094;28;20017;-57
2023/04/17 06:46:53;;;;;;;7.90;7.07;;;7.10;99.90;;;;;;5085573;28;20043;-57
2023/04/17 06:49:19;;;;;;;7.43;6.75;;;7.20;99.90;;;;;;5087126;28;20028;-56
2023/04/17 06:51:47;;;;;;;11.98;6.40;;;7.20;99.90;;;;;;5087117;28;20021;-59
2023/04/17 06:54:13;;;;;;;7.38;6.68;;;7.20;99.90;;;;;;5086940;28;20031;-59
2023/04/17 06:56:39;;;;;;;7.43;6.72;;;7.20;99.90;;;;;;5086976;28;20028;-58
2023/04/17 06:59:06;;;;;;;7.28;6.63;;;7.30;99.90;;;;;;5086463;28;20063;-58
2023/04/17 07:01:33;;;;;;;6.82;6.22;;;7.40;99.90;;;;;;5086637;28;20021;-56
2023/04/17 07:03:59;;;;;;;7.95;7.05;;;7.40;99.90;;;;;;5087046;28;20137;-59
2023/04/17 07:06:25;;;;;;;9.18;6.03;;;7.30;99.90;;;;;;5086527;28;20021;-59
2023/04/17 07:08:51;;;;;;;7.18;6.45;;;7.30;99.90;;;;;;5085398;28;20024;-58
2023/04/17 07:11:17;;;;;;;6.93;6.32;;;7.40;99.90;;;;;;5076718;28;20025;-58
2023/04/17 07:13:43;;;;;;;7.47;6.82;;;7.40;99.90;;;;;;5073128;28;20035;-59
2023/04/17 07:16:08;;;;;;;7.20;6.50;;;7.30;99.90;;;;;;5072655;28;20103;-59
2023/04/17 07:18:34;;;;;;;7.78;6.47;;;7.40;99.90;;;;;;5071500;28;20032;-57
2023/04/17 07:21:00;;;;;;;6.35;5.75;;;7.40;99.90;;;;;;5072959;28;20023;-59
2023/04/17 07:23:26;;;;;;;8.23;5.93;;;7.40;99.90;;;;;;5072896;28;20045;-59
2023/04/17 07:25:52;;;;;;;5.88;5.30;;;7.50;99.90;;;;;;5071281;28;20395;-58
2023/04/17 07:28:18;;;;;;;6.85;6.18;;;7.50;99.90;;;;;;5072655;28;20425;-58
2023/04/17 07:30:44;;;;;;;9.95;7.18;;;7.50;99.90;;;;;;5071486;28;20112;-58
2023/04/17 07:33:10;;;;;;;6.60;6.00;;;7.50;99.90;;;;;;5072590;28;20155;-57
2023/04/17 07:35:35;;;;;;;6.68;6.05;;;7.40;99.90;;;;;;5073031;28;20352;-57
2023/04/17 07:38:02;;;;;;;7.35;6.28;;;7.50;99.90;;;;;;5072722;28;20024;-59
2023/04/17 07:40:29;;;;;;;7.28;6.57;;;7.60;99.90;;;;;;5072526;28;20066;-59
2023/04/17 07:42:55;;;;;;;6.68;6.07;;;7.60;99.90;;;;;;5072635;28;20031;-59
2023/04/17 07:45:22;;;;;;;6.78;6.18;;;7.80;99.90;;;;;;5072201;28;20078;-56
2023/04/17 07:47:49;;;;;;;7.03;6.32;;;7.80;99.90;;;;;;5072723;28;20477;-58
2023/04/17 07:50:15;;;;;;;6.45;5.90;;;7.80;99.90;;;;;;5072277;28;20032;-56
2023/04/17 07:52:41;;;;;;;8.35;7.15;;;7.80;99.90;;;;;;5072414;28;20505;-59
2023/04/17 07:55:07;;;;;;;7.68;6.60;;;7.80;99.90;;;;;;5072309;28;20036;-58
2023/04/17 07:57:32;;;;;;;7.47;6.70;;;7.80;99.90;;;;;;5072193;28;20021;-59
2023/04/17 07:59:58;;;;;;;7.70;7.00;;;7.90;99.90;;;;;;5072036;28;20401;-56
2023/04/17 08:02:24;;;;;;;7.18;6.57;;;7.90;99.90;;;;;;5071975;28;20540;-59
2023/04/17 08:04:50;;;;;;;8.48;7.35;;;7.90;99.90;;;;;;5072214;28;20017;-57
2023/04/17 08:07:17;;;;;;;8.15;7.38;;;8.00;99.90;;;;;;5072080;28;20078;-57
2023/04/17 08:09:43;;;;;;;29.98;15.75;;;8.10;99.90;;;;;;5072076;28;20028;-57
2023/04/17 08:12:09;;;;;;;8.43;7.50;;;8.20;99.90;;;;;;5071712;28;20025;-58
2023/04/17 08:14:35;;;;;;;9.88;8.73;;;8.30;99.90;;;;;;5070707;28;20056;-56
2023/04/17 08:17:01;;;;;;;8.13;7.22;;;8.40;99.90;;;;;;5071921;28;20475;-59
2023/04/17 08:19:28;;;;;;;17.90;7.75;;;8.40;99.90;;;;;;5071555;28;20048;-56
2023/04/17 08:22:01;;;;;;;9.57;8.18;;;8.40;99.90;;;;;;5071169;28;20033;-57
2023/04/17 08:24:27;;;;;;;10.68;8.27;;;8.40;99.90;;;;;;5071537;28;20012;-58
2023/04/17 08:26:52;;;;;;;9.52;8.48;;;8.40;99.90;;;;;;5071571;28;20029;-57
2023/04/17 08:29:18;;;;;;;10.25;8.52;;;8.50;99.90;;;;;;5071579;28;20028;-57
2023/04/17 08:31:44;;;;;;;11.57;8.40;;;8.50;99.90;;;;;;5071644;28;20024;-57
2023/04/17 08:34:09;;;;;;;16.17;11.95;;;8.40;99.90;;;;;;5071483;28;20026;-58
2023/04/17 08:36:35;;;;;;;13.30;9.10;;;8.30;99.90;;;;;;5071536;28;20047;-56
2023/04/17 08:39:01;;;;;;;13.40;8.95;;;8.50;99.90;;;;;;5070120;28;20050;-58
2023/04/17 08:41:34;;;;;;;11.73;8.73;;;8.50;99.90;;;;;;5071212;28;20023;-59
2023/04/17 08:44:02;;;;;;;12.73;10.00;;;8.50;99.90;;;;;;5071413;28;20017;-57
2023/04/17 08:46:33;;;;;;;10.68;8.48;;;8.50;99.90;;;;;;5071147;28;20035;-58
2023/04/17 08:49:01;;;;;;;11.63;9.30;;;8.60;99.90;;;;;;5071251;28;20033;-56
2023/04/17 08:51:27;;;;;;;11.60;10.00;;;8.60;99.90;;;;;;5071015;28;20570;-58
2023/04/17 08:53:53;;;;;;;11.68;8.93;;;8.70;99.90;;;;;;5071058;28;20091;-55
2023/04/17 08:56:21;;;;;;;13.10;9.98;;;8.70;99.90;;;;;;5069639;28;20077;-57
2023/04/17 08:58:46;;;;;;;11.98;9.43;;;8.70;99.90;;;;;;5070867;28;20522;-58
2023/04/17 09:01:18;;;;;;;11.35;9.75;;;8.70;99.90;;;;;;5071039;28;20067;-59
2023/04/17 09:03:50;;;;;;;12.90;9.57;;;8.70;99.90;;;;;;5071090;28;20026;-57
2023/04/17 09:06:16;;;;;;;11.23;8.80;;;8.70;99.90;;;;;;5070671;28;20044;-58
2023/04/17 09:08:57;;;;;;;11.70;9.80;;;8.80;99.90;;;;;;5070401;28;20039;-59
2023/04/17 09:11:24;;;;;;;13.57;10.05;;;8.80;99.90;;;;;;5070591;28;20020;-54
2023/04/17 09:13:49;;;;;;;15.40;9.45;;;8.70;99.90;;;;;;5069419;28;20035;-58
2023/04/17 09:16:15;;;;;;;12.40;9.32;;;8.70;99.90;;;;;;5070638;28;20028;-59
2023/04/17 09:18:41;;;;;;;12.30;9.38;;;8.70;99.90;;;;;;5070757;28;20282;-59
2023/04/17 09:21:08;;;;;;;15.35;9.50;;;8.80;99.90;;;;;;5070382;28;20017;-56
2023/04/17 09:23:55;;;;;;;12.45;9.27;;;8.90;99.90;;;;;;5070749;28;20021;-59
2023/04/17 09:26:24;;;;;;;12.13;8.23;;;9.00;99.90;;;;;;5070438;28;20499;-58
2023/04/17 09:29:07;;;;;;;12.20;8.77;;;9.20;99.90;;;;;;5070568;28;20590;-57
2023/04/17 09:31:34;;;;;;;17.88;9.25;;;9.10;99.90;;;;;;5070441;28;20054;-58
2023/04/17 09:34:09;;;;;;;13.30;10.90;;;9.10;99.90;;;;;;5070145;28;20025;-57
2023/04/17 09:36:36;;;;;;;12.98;9.38;;;9.40;99.90;;;;;;5070542;28;20050;-58
2023/04/17 09:39:04;;;;;;;12.15;9.57;;;9.60;99.90;;;;;;5070852;28;20135;-57
2023/04/17 09:41:38;;;;;;;16.15;9.75;;;9.80;99.90;;;;;;5070937;28;20025;-57
2023/04/17 09:44:08;;;;;;;17.05;9.70;;;10.00;99.90;;;;;;5070993;28;20020;-58
2023/04/17 09:46:39;;;;;;;14.32;10.73;;;10.20;99.90;;;;;;5069794;28;20020;-58
2023/04/17 09:49:14;;;;;;;14.43;10.35;;;10.20;99.90;;;;;;5070242;28;20035;-58
2023/04/17 09:51:40;;;;;;;15.32;9.80;;;10.30;99.90;;;;;;5070419;28;20102;-58
2023/04/17 09:54:09;;;;;;;16.90;11.00;;;10.30;99.90;;;;;;5070323;28;20025;-56
2023/04/17 09:56:36;;;;;;;11.00;8.90;;;10.30;99.90;;;;;;5070291;28;20033;-58
2023/04/17 09:59:04;;;;;;;13.15;8.90;;;10.80;99.90;;;;;;5070079;28;20043;-59
2023/04/17 10:01:34;;;;;;;13.85;10.13;;;11.20;99.90;;;;;;5070218;28;20078;-58
2023/04/17 10:04:02;;;;;;;12.32;9.35;;;11.50;99.90;;;;;;5070440;28;20115;-59
2023/04/17 10:06:30;;;;;;;10.80;8.60;;;11.70;99.90;;;;;;5070289;28;20025;-59
2023/04/17 10:08:55;;;;;;;13.98;10.07;;;11.90;99.90;;;;;;5070049;28;20032;-58
2023/04/17 10:11:27;;;;;;;12.70;9.50;;;11.90;99.90;;;;;;5070096;28;20040;-59
2023/04/17 10:14:13;;;;;;;12.02;8.52;;;11.80;99.90;;;;;;5070324;28;20125;-59
2023/04/17 10:16:43;;;;;;;12.88;9.77;;;11.50;99.90;;;;;;5068880;28;20553;-57
2023/04/17 10:19:32;;;;;;;10.60;9.02;;;11.60;1.00;;;;;;5070104;28;20028;-58
2023/04/17 10:22:19;;;;;;;11.00;8.82;;;12.30;1.00;;;;;;5068910;28;20531;-58
2023/04/17 10:25:11;;;;;;;10.98;8.30;;;12.60;1.00;;;;;;5068581;28;20036;-59
2023/04/17 10:27:40;;;;;;;12.90;10.27;;;12.50;1.00;;;;;;5069894;28;20432;-58
2023/04/17 10:30:15;;;;;;;11.13;8.48;;;12.50;1.00;;;;;;5069794;28;20028;-59
2023/04/17 10:32:44;;;;;;;9.85;8.27;;;12.70;1.00;;;;;;5070142;28;20020;-56
2023/04/17 10:35:16;;;;;;;12.02;9.50;;;13.10;99.90;;;;;;5069770;28;20025;-59
2023/04/17 10:37:50;;;;;;;11.98;9.70;;;12.60;99.90;;;;;;5069627;28;20048;-58
2023/04/17 10:40:23;;;;;;;11.50;8.93;;;12.60;99.90;;;;;;5069655;28;20016;-59
2023/04/17 10:43:18;;;;;;;10.38;8.65;;;12.20;1.00;;;;;;5069939;28;20119;-58
2023/04/17 10:45:59;;;;;;;9.35;7.95;;;12.70;1.00;;;;;;5070887;28;20032;-59
2023/04/17 10:48:45;;;;;;;10.18;7.80;;;12.90;1.00;;;;;;5073393;28;20078;-58
2023/04/17 10:51:20;;;;;;;9.70;7.90;;;12.80;99.90;;;;;;5073345;28;20025;-54
2023/04/17 10:53:48;;;;;;;9.10;8.07;;;12.70;99.90;;;;;;5073448;28;20119;-56
2023/04/17 10:56:27;;;;;;;11.07;8.98;;;12.60;99.90;;;;;;5073310;28;20051;-59
2023/04/17 10:59:09;;;;;;;10.13;8.63;;;12.10;1.00;;;;;;5073188;28;20077;-58
2023/04/17 11:01:56;;;;;;;11.07;9.00;;;12.00;1.00;;;;;;5073192;28;20020;-58
2023/04/17 11:04:29;;;;;;;12.13;10.02;;;11.80;1.00;;;;;;5073276;28;20498;-59
2023/04/17 11:06:55;;;;;;;10.80;8.68;;;11.60;1.00;;;;;;5073188;28;20033;-59
2023/04/17 11:09:23;;;;;;;12.50;10.07;;;11.40;1.00;;;;;;5072725;28;20116;-59
2023/04/17 11:11:48;;;;;;;11.13;9.93;;;11.10;1.00;;;;;;5073329;28;20046;-58
2023/04/17 11:14:16;;;;;;;13.70;9.95;;;11.00;1.00;;;;;;5072900;28;20103;-57
2023/04/17 11:16:44;;;;;;;12.05;9.35;;;11.00;1.90;;;;;;5073059;28;20021;-56
2023/04/17 11:19:15;;;;;;;9.60;8.60;;;11.10;1.00;;;;;;5071460;28;20067;-59
2023/04/17 11:21:46;;;;;;;10.73;9.23;;;11.20;1.00;;;;;;5071711;28;20384;-55
2023/04/17 11:24:11;;;;;;;9.20;8.07;;;11.30;1.00;;;;;;5072825;28;20091;-57
2023/04/17 11:26:43;;;;;;;10.45;8.70;;;11.60;1.00;;;;;;5072951;28;20028;-59
2023/04/17 11:29:20;;;;;;;8.00;7.20;;;12.00;1.00;;;;;;5072669;28;20029;-58
2023/04/17 11:31:47;;;;;;;9.57;7.65;;;12.90;1.00;;;;;;5072942;28;20032;-58
2023/04/17 11:34:14;;;;;;;9.70;8.25;;;13.30;99.90;;;;;;5072543;28;20528;-58
2023/04/17 11:36:47;;;;;;;9.52;8.13;;;13.70;99.90;;;;;;5072669;28;20360;-57
2023/04/17 11:39:14;;;;;;;8.70;7.80;;;13.40;99.90;;;;;;5072618;28;20021;-59
2023/04/17 11:41:43;;;;;;;7.90;6.97;;;14.20;99.90;;;;;;5073341;28;20345;-59
2023/04/17 11:44:11;;;;;;;7.45;6.70;;;14.40;1.00;;;;;;5072708;28;20012;-59
2023/04/17 11:46:36;;;;;;;8.10;6.68;;;14.60;1.00;;;;;;5073007;28;20178;-57
2023/04/17 11:49:07;;;;;;;8.05;6.82;;;15.30;1.00;;;;;;5072576;28;20103;-59
2023/04/17 11:51:33;;;;;;;9.27;7.65;;;15.10;99.90;;;;;;5072293;28;20415;-59
2023/04/17 11:53:59;;;;;;;9.18;7.72;;;14.70;99.90;;;;;;5072462;28;20035;-59
2023/04/17 11:56:29;;;;;;;9.68;7.80;;;14.40;85.20;;;;;;5072147;28;20479;-58
2023/04/17 11:58:57;;;;;;;9.80;8.35;;;14.00;1.00;;;;;;5072081;28;20056;-59
2023/04/17 12:01:27;;;;;;;10.13;8.98;;;13.50;1.00;;;;;;5071950;28;20024;-59
2023/04/17 12:03:56;;;;;;;9.07;7.53;;;13.10;17.30;;;;;;5072380;28;20028;-59
2023/04/17 12:06:26;;;;;;;18.30;11.88;;;12.80;99.90;;;;;;5070586;28;20421;-57
2023/04/17 12:08:53;;;;;;;10.45;8.80;;;12.50;1.00;;;;;;5072033;28;20021;-59
2023/04/17 12:11:31;;;;;;;10.95;9.18;;;12.20;1.00;;;;;;5071975;28;20028;-57
2023/04/17 12:13:57;;;;;;;8.10;7.32;;;12.20;1.00;;;;;;5071898;28;20028;-58
2023/04/17 12:16:25;;;;;;;8.70;7.68;;;12.10;1.00;;;;;;5071821;28;20035;-57
2023/04/17 12:18:51;;;;;;;7.78;6.97;;;12.10;1.00;;;;;;5071899;28;20438;-58
2023/04/17 12:21:20;;;;;;;7.72;6.93;;;12.30;1.00;;;;;;5071791;28;20078;-56
2023/04/17 12:23:46;;;;;;;10.38;6.45;;;12.50;1.00;;;;;;5071752;28;20029;-58
2023/04/17 12:26:13;;;;;;;9.35;8.15;;;12.80;1.00;;;;;;5071557;28;20449;-59
2023/04/17 12:28:39;;;;;;;11.20;8.30;;;13.10;1.00;;;;;;5071785;28;20017;-58
2023/04/17 12:31:05;;;;;;;7.03;6.32;;;13.30;99.90;;;;;;5071554;28;20369;-58
2023/04/17 12:33:31;;;;;;;8.13;6.90;;;13.40;99.90;;;;;;5071550;28;20507;-57
2023/04/17 12:35:59;;;;;;;8.65;6.78;;;13.20;99.90;;;;;;5071613;28;20468;-56
2023/04/17 12:38:25;;;;;;;9.50;7.53;;;13.20;1.00;;;;;;5071331;28;20020;-59
2023/04/17 12:40:50;;;;;;;12.32;9.77;;;13.00;99.90;;;;;;5071404;28;20029;-58
2023/04/17 12:43:16;;;;;;;11.73;8.50;;;12.70;1.00;;;;;;5071135;28;20387;-56
2023/04/17 12:45:44;;;;;;;11.02;6.93;;;12.50;1.00;;;;;;5071393;28;20024;-59
2023/04/17 12:48:10;;;;;;;14.77;7.75;;;12.60;1.00;;;;;;5071536;28;20024;-59
2023/04/17 12:50:41;;;;;;;7.65;6.63;;;12.40;1.00;;;;;;5070048;28;20420;-58
2023/04/17 12:53:07;;;;;;;9.43;7.70;;;12.80;99.90;;;;;;5071131;28;20082;-57